Time;durP1;ratioP1;P1;durP2;ratioP2;P2;SDS_P1;SDS_P2;PMS_P1;PMS_P2;Temp;Humidity;BMP_temperature;BMP_pressure;BME280_temperature;BME280_humidity;BME280_pressure;Samples;Min_cycle;Max_cycle;Signal;HPM_P1;HPM_P2
2023/11/04 00:00:08;;;;;;;;;;;;;;;9.29;95.25;98205.00;5005062;28;19944;-70
2023/11/04 00:03:01;;;;;;;;;;;;;;;9.30;94.36;98201.41;5025581;28;19925;-74
2023/11/04 00:06:18;;;;;;;;;;;;;;;9.28;94.86;98193.69;5024902;28;19933;-73
2023/11/04 00:10:00;;;;;;;;;;;;;;;9.23;94.69;98195.03;5027425;28;19928;-73
2023/11/04 00:13:42;;;;;;;;;;;;;;;9.26;94.52;98200.03;5017448;28;20299;-68
2023/11/04 00:16:59;;;;;;;;;;;;;;;9.16;95.01;98205.28;5023668;28;20473;-71
2023/11/04 00:20:40;;;;;;;;;;;;;;;9.19;94.80;98204.19;5021224;28;19943;-72
2023/11/04 00:24:20;;;;;;;;;;;;;;;9.12;95.97;98206.53;5027464;28;19936;-72
2023/11/04 00:28:01;;;;;;;;;;;;;;;9.09;96.17;98212.88;5029410;28;19979;-72
2023/11/04 00:31:42;;;;;;;;;;;;;;;9.06;96.65;98217.63;5031432;28;19947;-73
2023/11/04 00:35:23;;;;;;;;;;;;;;;8.96;95.78;98219.38;5019188;28;19999;-74
2023/11/04 00:38:40;;;;;;;;;;;;;;;8.94;95.69;98226.59;5020103;28;19921;-74
2023/11/04 00:41:56;;;;;;;;;;;;;;;8.85;94.84;98221.19;5022677;28;19933;-75
2023/11/04 00:45:36;;;;;;;;;;;;;;;8.88;95.17;98233.22;5028470;28;20086;-71
2023/11/04 00:49:17;;;;;;;;;;;;;;;8.82;96.03;98231.97;5023110;28;19928;-73
2023/11/04 00:52:59;;;;;;;;;;;;;;;8.78;95.41;98235.00;5026986;28;19935;-69
2023/11/04 00:56:16;;;;;;;;;;;;;;;8.68;96.81;98242.84;5024394;28;19972;-69
2023/11/04 00:59:35;;;;;;;;;;;;;;;8.70;95.94;98251.44;5018263;28;19943;-69
2023/11/04 01:09:39;;;;;;;;;;;;;;;8.62;95.38;98252.13;5023893;28;20564;-71
2023/11/04 01:12:40;;;;;;;;;;;;;;;8.57;95.47;98251.69;5031009;28;20316;-72
2023/11/04 01:15:57;;;;;;;;;;;;;;;8.56;95.50;98254.47;5026729;28;20003;-71
2023/11/04 01:19:37;;;;;;;;;;;;;;;8.55;95.42;98273.75;5020274;28;19944;-71
2023/11/04 01:23:18;;;;;;;;;;;;;;;8.56;94.87;98260.53;5023857;28;20326;-66
2023/11/04 01:26:35;;;;;;;;;;;;;;;8.58;95.24;98257.75;5022648;28;20044;-73
2023/11/04 01:42:47;;;;;;;;;;;;;;;8.48;94.87;98270.03;5014470;28;20261;-64
2023/11/04 01:45:15;;;;;;;;;;;;;;;8.46;94.66;98264.09;5019097;28;19933;-75
2023/11/04 02:15:30;;;;;;;;;;;;;;;7.86;98.57;98283.16;5019760;28;20557;-70
2023/11/04 02:18:23;;;;;;;;;;;;;;;7.86;98.79;98290.19;5022182;28;20332;-72
2023/11/04 02:20:51;;;;;;;;;;;;;;;7.72;99.44;98293.16;5030674;28;19976;-68
2023/11/04 02:26:35;;;;;;;;;;;;;;;7.65;99.36;98290.19;5024396;28;19925;-76
2023/11/04 02:29:27;;;;;;;;;;;;;;;7.56;100.00;98291.78;5026526;28;20016;-71
2023/11/04 02:33:08;;;;;;;;;;;;;;;7.52;100.00;98292.19;5020559;28;19990;-73
2023/11/04 02:36:50;;;;;;;;;;;;;;;7.44;100.00;98290.22;5025403;28;20014;-73
2023/11/04 02:39:43;;;;;;;;;;;;;;;7.40;100.00;98299.28;5025717;28;19925;-65
2023/11/04 02:42:34;;;;;;;;;;;;;;;7.33;100.00;98303.34;5023647;28;20462;-64
2023/11/04 02:51:38;;;;;;;;;;;;;;;7.22;100.00;98313.91;5013812;28;19955;-73
2023/11/04 02:54:32;;;;;;;;;;;;;;;7.16;100.00;98314.38;5019873;28;19969;-71
2023/11/04 02:57:51;;;;;;;;;;;;;;;7.12;100.00;98323.47;5025656;28;19921;-70
2023/11/04 03:01:31;;;;;;;;;;;;;;;7.08;100.00;98322.88;5015507;28;19976;-68
2023/11/04 03:04:48;;;;;;;;;;;;;;;7.03;100.00;98325.88;5017035;28;19931;-73
2023/11/04 03:24:32;;;;;;;;;;;;;;;6.89;100.00;98323.53;5031021;28;19944;-68
2023/11/04 03:27:00;;;;;;;;;;;;;;;6.85;100.00;98324.72;5024795;28;19955;-65
2023/11/04 03:29:28;;;;;;;;;;;;;;;6.84;100.00;98329.13;5024454;28;19998;-72
2023/11/04 03:32:20;;;;;;;;;;;;;;;6.80;100.00;98321.66;5030918;28;19925;-71
2023/11/04 03:35:36;;;;;;;;;;;;;;;6.79;100.00;98330.44;5019072;28;20426;-69
2023/11/04 03:38:35;;;;;;;;;;;;;;;6.80;100.00;98326.88;5020223;28;20376;-75
2023/11/04 03:41:49;;;;;;;;;;;;;;;6.75;100.00;98326.41;5021636;28;19932;-71
2023/11/04 03:45:24;;;;;;;;;;;;;;;6.68;100.00;98328.69;5021435;28;19967;-75
2023/11/04 03:48:53;;;;;;;;;;;;;;;6.60;100.00;98331.06;5020966;28;19939;-70
2023/11/04 03:52:28;;;;;;;;;;;;;;;6.59;100.00;98332.03;5020902;28;19928;-73
2023/11/04 03:55:50;;;;;;;;;;;;;;;6.53;100.00;98328.13;5021516;28;20312;-72
2023/11/04 03:59:19;;;;;;;;;;;;;;;6.51;100.00;98324.78;5019015;28;20406;-70
2023/11/04 04:03:00;;;;;;;;;;;;;;;6.51;100.00;98329.19;5021973;28;19987;-70
2023/11/04 04:06:41;;;;;;;;;;;;;;;6.50;100.00;98323.13;5019929;28;20537;-72
2023/11/04 04:10:15;;;;;;;;;;;;;;;6.46;100.00;98331.34;5030823;28;19924;-74
2023/11/04 04:13:55;;;;;;;;;;;;;;;6.45;100.00;98324.44;5019229;28;20301;-74
2023/11/04 04:17:36;;;;;;;;;;;;;;;6.45;100.00;98337.53;5018370;28;19932;-71
2023/11/04 04:21:11;;;;;;;;;;;;;;;6.43;100.00;98321.94;5017866;28;20445;-76
2023/11/04 04:24:52;;;;;;;;;;;;;;;6.39;100.00;98330.97;5034147;28;19936;-72
2023/11/04 04:28:26;;;;;;;;;;;;;;;6.38;100.00;98318.88;5015525;28;19931;-74
2023/11/04 04:32:07;;;;;;;;;;;;;;;6.33;100.00;98329.69;5023241;28;20406;-68
2023/11/04 04:35:36;;;;;;;;;;;;;;;6.27;100.00;98326.72;5015522;28;19928;-69
2023/11/04 04:39:18;;;;;;;;;;;;;;;6.25;100.00;98331.22;5032708;28;20054;-75
2023/11/04 04:42:46;;;;;;;;;;;;;;;6.23;100.00;98339.19;5024793;28;19945;-68
2023/11/04 04:46:29;;;;;;;;;;;;;;;6.22;100.00;98326.25;5014356;28;19929;-73
2023/11/04 04:50:04;;;;;;;;;;;;;;;6.23;100.00;98320.06;5025109;28;20012;-70
2023/11/04 04:53:38;;;;;;;;;;;;;;;6.20;100.00;98328.13;5024293;28;19997;-76
2023/11/04 04:57:20;;;;;;;;;;;;;;;6.17;100.00;98318.78;5030539;28;20373;-68
2023/11/04 05:01:01;;;;;;;;;;;;;;;6.16;100.00;98319.69;5022210;28;20023;-73
2023/11/04 05:04:42;;;;;;;;;;;;;;;6.16;100.00;98322.31;5027867;28;19928;-70
2023/11/04 05:08:22;;;;;;;;;;;;;;;6.17;100.00;98331.84;5021136;28;19924;-73
2023/11/04 05:11:37;;;;;;;;;;;;;;;6.17;100.00;98324.00;5018144;28;19987;-72
2023/11/04 05:14:04;;;;;;;;;;;;;;;6.12;100.00;98326.09;5023095;28;20291;-69
2023/11/04 05:16:57;;;;;;;;;;;;;;;6.09;100.00;98324.59;5021654;28;19932;-67
2023/11/04 05:19:52;;;;;;;;;;;;;;;6.13;100.00;98329.59;5022453;28;19995;-69
2023/11/04 05:23:13;;;;;;;;;;;;;;;6.15;100.00;98335.50;5019942;28;19927;-76
2023/11/04 05:26:28;;;;;;;;;;;;;;;6.08;100.00;98333.38;5027388;28;20051;-75
2023/11/04 05:29:44;;;;;;;;;;;;;;;6.08;100.00;98327.31;5020690;28;20408;-69
2023/11/04 05:33:00;;;;;;;;;;;;;;;6.08;100.00;98330.75;5025199;28;19975;-67
2023/11/04 05:36:18;;;;;;;;;;;;;;;6.13;100.00;98332.19;5025204;28;20379;-78
2023/11/04 05:39:34;;;;;;;;;;;;;;;6.12;100.00;98330.50;5023702;28;20343;-70
2023/11/04 05:42:50;;;;;;;;;;;;;;;6.09;100.00;98335.03;5026119;28;19929;-72
2023/11/04 06:14:53;;;;;;;;;;;;;;;5.98;100.00;98342.84;5020226;28;20402;-78
2023/11/04 06:17:45;;;;;;;;;;;;;;;6.00;100.00;98346.19;5026055;28;19980;-71
2023/11/04 06:21:26;;;;;;;;;;;;;;;5.98;100.00;98349.84;5017022;28;19943;-73
2023/11/04 06:24:48;;;;;;;;;;;;;;;5.98;100.00;98342.00;5013049;28;19928;-70
2023/11/04 06:27:17;;;;;;;;;;;;;;;5.93;100.00;98337.16;5015749;28;20031;-74
2023/11/04 06:37:09;;;;;;;;;;;;;;;6.05;100.00;98345.84;5016960;28;19999;-71
2023/11/04 06:40:01;;;;;;;;;;;;;;;6.02;100.00;98333.81;5003966;28;20431;-71
2023/11/04 06:43:41;;;;;;;;;;;;;;;6.08;100.00;98340.38;5024843;28;19951;-79
2023/11/04 06:47:22;;;;;;;;;;;;;;;6.18;100.00;98335.28;5026424;28;20450;-73
2023/11/04 06:51:03;;;;;;;;;;;;;;;6.24;100.00;98334.78;5023832;28;19983;-75
2023/11/04 06:54:19;;;;;;;;;;;;;;;6.27;100.00;98337.19;5016688;28;19937;-72
2023/11/04 07:03:49;;;;;;;;;;;;;;;6.42;100.00;98333.34;5018140;28;19921;-72
2023/11/04 07:06:44;;;;;;;;;;;;;;;6.47;100.00;98333.00;5032977;28;20012;-71
2023/11/04 07:09:59;;;;;;;;;;;;;;;6.55;100.00;98335.84;5023370;28;20032;-73
2023/11/04 07:23:13;;;;;;;;;;;;;;;6.80;100.00;98337.34;5022383;28;19924;-75
2023/11/04 07:26:05;;;;;;;;;;;;;;;6.76;100.00;98330.69;5023566;28;20222;-74
2023/11/04 07:29:25;;;;;;;;;;;;;;;6.80;100.00;98335.56;5021819;28;20828;-70
2023/11/04 07:34:47;;;;;;;;;;;;;;;6.83;100.00;98327.44;5025475;28;19933;-72
2023/11/04 07:37:15;;;;;;;;;;;;;;;6.83;100.00;98326.63;5018589;28;19948;-69
2023/11/04 07:39:43;;;;;;;;;;;;;;;6.89;100.00;98323.53;5026842;28;19929;-65
2023/11/04 07:42:35;;;;;;;;;;;;;;;6.92;100.00;98325.88;5021091;28;20276;-70
2023/11/04 07:46:16;;;;;;;;;;;;;;;7.03;100.00;98325.88;5020022;28;19936;-65
2023/11/04 07:49:58;;;;;;;;;;;;;;;7.24;100.00;98318.03;5019573;28;19932;-69
2023/11/04 07:53:15;;;;;;;;;;;;;;;7.41;99.16;98314.03;5020778;28;19928;-72
2023/11/04 08:05:56;;;;;;;;;;;;;;;7.52;97.50;98300.03;5022306;28;19999;-65
2023/11/04 08:08:23;;;;;;;;;;;;;;;7.54;97.51;98293.72;5023172;28;19929;-66
2023/11/04 08:17:47;;;;;;;;;;;;;;;8.07;93.93;98292.78;5024927;28;19975;-73
2023/11/04 08:20:39;;;;;;;;;;;;;;;8.18;93.12;98297.09;5038969;28;20001;-64
2023/11/04 08:24:20;;;;;;;;;;;;;;;8.26;90.99;98290.22;5020925;28;19932;-71
2023/11/04 08:28:01;;;;;;;;;;;;;;;8.43;90.24;98295.84;5017580;28;19948;-65
2023/11/04 08:31:42;;;;;;;;;;;;;;;8.65;88.47;98290.38;5014097;28;19928;-74
2023/11/04 08:34:58;;;;;;;;;;;;;;;8.72;88.00;98290.63;5018457;28;20396;-77
2023/11/04 08:50:39;;;;;;;;;;;;;;;9.09;85.34;98273.25;5024692;28;19925;-69
2023/11/04 08:53:31;;;;;;;;;;;;;;;9.17;83.11;98279.63;5021298;28;20060;-72
2023/11/04 08:56:25;;;;;;;;;;;;;;;9.07;82.64;98275.19;5021210;28;20490;-70
2023/11/04 09:09:14;;;;;;;;;;;;;;;9.37;81.32;98276.84;5017485;28;19925;-72
2023/11/04 09:12:06;;;;;;;;;;;;;;;9.61;80.06;98271.13;5000254;28;19926;-74
2023/11/04 09:15:48;;;;;;;;;;;;;;;9.61;78.89;98273.75;5018838;28;19931;-73
2023/11/04 09:19:30;;;;;;;;;;;;;;;9.54;79.14;98282.34;5020358;28;19932;-71
2023/11/04 09:22:48;;;;;;;;;;;;;;;9.81;78.14;98279.78;5029195;28;20022;-73
2023/11/04 09:26:03;;;;;;;;;;;;;;;9.84;77.72;98278.69;5024066;28;20048;-71
2023/11/04 09:29:19;;;;;;;;;;;;;;;10.05;76.04;98281.09;5025776;28;20130;-71
2023/11/04 09:32:35;;;;;;;;;;;;;;;9.94;75.94;98276.00;5023897;28;19991;-71
2023/11/04 09:42:00;;;;;;;;;;;;;;;10.16;74.05;98283.53;5025584;28;19924;-72
2023/11/04 09:44:54;;;;;;;;;;;;;;;10.15;73.70;98264.31;5036415;28;20389;-74
2023/11/04 09:48:11;;;;;;;;;;;;;;;10.21;73.01;98270.78;5022347;28;20348;-71
2023/11/04 09:51:28;;;;;;;;;;;;;;;10.55;72.63;98259.72;5026195;28;20008;-65
2023/11/04 10:04:36;;;;;;;;;;;;;;;11.11;69.36;98248.06;5020104;28;19948;-73
2023/11/04 10:07:28;;;;;;;;;;;;;;;11.10;69.64;98241.97;5025219;28;20028;-70
2023/11/04 10:10:45;;;;;;;;;;;;;;;11.41;69.16;98234.47;5022764;28;20003;-72
2023/11/04 10:14:25;;;;;;;;;;;;;;;11.07;67.60;98237.00;5023813;28;20410;-69
2023/11/04 10:17:42;;;;;;;;;;;;;;;11.33;68.14;98250.22;5025294;28;19921;-65
2023/11/04 10:21:23;;;;;;;;;;;;;;;11.30;67.36;98241.78;5016972;28;20383;-68
2023/11/04 10:25:07;;;;;;;;;;;;;;;11.27;67.25;98223.69;5020073;28;19954;-71
2023/11/04 10:28:48;;;;;;;;;;;;;;;11.54;67.35;98227.97;5022780;28;20034;-74
2023/11/04 10:32:29;;;;;;;;;;;;;;;11.78;65.97;98222.00;5023163;28;20032;-67
2023/11/04 10:35:48;;;;;;;;;;;;;;;11.75;65.97;98220.53;5021229;28;19967;-72
2023/11/04 10:38:40;;;;;;;;;;;;;;;11.83;65.29;98217.13;5025042;28;19952;-65
2023/11/04 10:41:49;;;;;;;;;;;;;;;12.03;63.68;98226.47;5026113;28;19932;-71
2023/11/04 10:58:26;;;;;;;;;;;;;;;12.74;61.15;98190.03;5021640;28;20000;-75
2023/11/04 11:00:53;;;;;;;;;;;;;;;12.97;59.83;98184.91;5023935;28;19929;-72
2023/11/04 11:10:47;;;;;;;;;;;;;;;13.15;58.89;98189.06;5024844;28;20529;-66
2023/11/04 11:13:39;;;;;;;;;;;;;;;12.96;59.08;98193.84;5023667;28;20136;-65
2023/11/04 11:17:19;;;;;;;;;;;;;;;12.19;60.37;98190.56;5024731;28;20011;-74
2023/11/04 11:21:00;;;;;;;;;;;;;;;12.39;60.76;98184.06;5021766;28;20131;-71
2023/11/04 11:24:40;;;;;;;;;;;;;;;11.97;60.02;98182.25;5022319;28;19928;-70
2023/11/04 11:28:04;;;;;;;;;;;;;;;12.55;58.41;98176.16;5022373;28;19928;-75
2023/11/04 11:30:58;;;;;;;;;;;;;;;12.31;60.29;98168.19;5026452;28;20307;-71
2023/11/04 11:33:26;;;;;;;;;;;;;;;12.95;58.00;98171.06;5025116;28;19929;-74
2023/11/04 11:35:58;;;;;;;;;;;;;;;12.59;58.65;98172.19;5027293;28;20043;-74
2023/11/04 11:38:29;;;;;;;;;;;;;;;13.06;58.40;98173.41;5025671;28;19968;-73
2023/11/04 11:41:23;;;;;;;;;;;;;;;13.20;56.36;98164.78;5025668;28;19925;-70
2023/11/04 11:44:41;;;;;;;;;;;;;;;12.32;59.00;98169.84;5026583;28;20495;-72
2023/11/04 11:48:22;;;;;;;;;;;;;;;12.10;60.24;98166.00;5032087;28;19936;-73
2023/11/04 11:52:05;;;;;;;;;;;;;;;12.33;60.39;98159.13;5026306;28;19928;-72
2023/11/04 11:55:45;;;;;;;;;;;;;;;12.10;60.18;98156.25;5027317;28;20018;-73
2023/11/04 11:59:27;;;;;;;;;;;;;;;12.12;60.26;98162.22;5025103;28;20024;-73
2023/11/04 12:03:07;;;;;;;;;;;;;;;11.90;60.38;98152.25;5027567;28;19932;-66
2023/11/04 12:06:48;;;;;;;;;;;;;;;11.88;60.46;98147.13;5027080;28;20145;-71
2023/11/04 12:10:28;;;;;;;;;;;;;;;12.64;58.73;98147.94;5024344;28;20354;-73
2023/11/04 12:14:10;;;;;;;;;;;;;;;12.96;56.82;98147.13;5026005;28;19973;-67
2023/11/04 12:17:51;;;;;;;;;;;;;;;12.82;57.67;98131.94;5026199;28;19973;-73
2023/11/04 12:21:33;;;;;;;;;;;;;;;14.68;52.46;98137.59;5021404;28;20544;-70
2023/11/04 12:25:14;;;;;;;;;;;;;;;17.14;45.67;98143.38;5024881;28;20135;-73
2023/11/04 12:28:12;;;;;;;;;;;;;;;17.15;44.36;98135.19;5019332;28;19951;-72
2023/11/04 12:36:31;;;;;;;;;;;;;;;20.53;39.10;98129.38;5023263;28;19969;-70
2023/11/04 12:39:24;;;;;;;;;;;;;;;23.32;33.35;98147.69;5008237;28;19932;-68
2023/11/04 12:43:06;;;;;;;;;;;;;;;24.15;30.61;98139.31;5029156;28;19928;-72
2023/11/04 12:46:47;;;;;;;;;;;;;;;22.07;32.96;98129.69;5022305;28;19928;-68
2023/11/04 12:50:27;;;;;;;;;;;;;;;20.27;35.44;98134.88;5020146;28;20039;-72
2023/11/04 12:53:49;;;;;;;;;;;;;;;19.42;37.08;98111.72;5017128;28;19929;-74
2023/11/04 12:56:18;;;;;;;;;;;;;;;18.52;39.02;98109.66;5023203;28;19983;-66
2023/11/04 13:02:34;;;;;;;;;;;;;;;17.20;41.50;98105.34;5029517;28;19932;-72
2023/11/04 13:05:56;;;;;;;;;;;;;;;17.36;40.71;98117.53;5021371;28;20416;-72
2023/11/04 13:09:13;;;;;;;;;;;;;;;16.81;42.44;98105.91;5016251;28;19994;-75
2023/11/04 13:12:14;;;;;;;;;;;;;;;15.90;43.75;98110.88;5017332;28;20024;-69
2023/11/04 13:15:55;;;;;;;;;;;;;;;15.67;44.92;98103.84;5024745;28;20009;-75
2023/11/04 13:19:37;;;;;;;;;;;;;;;15.35;45.98;98109.47;5025529;28;20347;-74
2023/11/04 13:23:19;;;;;;;;;;;;;;;14.09;48.39;98105.50;5018087;28;19932;-72
2023/11/04 13:26:41;;;;;;;;;;;;;;;13.33;51.49;98107.00;5021231;28;19951;-65
2023/11/04 13:29:58;;;;;;;;;;;;;;;12.93;52.44;98105.22;5036962;28;19940;-67
2023/11/04 13:33:19;;;;;;;;;;;;;;;12.42;54.21;98094.00;5026292;28;20378;-63
2023/11/04 13:48:55;;;;;;;;;;;;;;;14.10;50.24;98086.00;5020789;28;20067;-72
2023/11/04 13:51:47;;;;;;;;;;;;;;;14.57;48.63;98092.97;5015769;28;19925;-67
2023/11/04 13:55:06;;;;;;;;;;;;;;;15.79;45.43;98088.25;5021186;28;20450;-73
2023/11/04 13:58:28;;;;;;;;;;;;;;;15.84;44.33;98077.09;5016240;28;20026;-65
2023/11/04 14:23:00;;;;;;;;;;;;;;;13.78;48.75;98051.78;5024970;28;19932;-68
2023/11/04 14:25:54;;;;;;;;;;;;;;;14.68;46.81;98052.84;5018824;28;19932;-70
2023/11/04 14:29:12;;;;;;;;;;;;;;;15.64;44.29;98039.75;5025640;28;19947;-73
2023/11/04 14:32:53;;;;;;;;;;;;;;;14.69;46.39;98043.91;5021756;28;19932;-75
2023/11/04 14:36:34;;;;;;;;;;;;;;;13.53;49.13;98038.69;5023974;28;19994;-65
2023/11/04 14:40:20;;;;;;;;;;;;;;;12.90;51.27;98027.16;5022027;28;19931;-71
2023/11/04 14:42:47;;;;;;;;;;;;;;;12.52;52.33;98031.34;5021058;28;19925;-70
2023/11/04 14:55:32;;;;;;;;;;;;;;;11.75;55.68;98009.69;5021062;28;20016;-74
2023/11/04 14:58:24;;;;;;;;;;;;;;;11.42;56.08;98000.84;5024858;28;19925;-67
2023/11/04 15:01:45;;;;;;;;;;;;;;;11.18;57.47;97996.31;5025255;28;19929;-72
2023/11/04 15:05:01;;;;;;;;;;;;;;;11.22;57.74;97988.94;5024409;28;19936;-72
2023/11/04 15:07:52;;;;;;;;;;;;;;;11.13;57.98;97991.53;5022708;28;19986;-69
2023/11/04 15:11:08;;;;;;;;;;;;;;;10.86;59.01;97994.38;5031041;28;19947;-68
2023/11/04 15:13:59;;;;;;;;;;;;;;;10.75;60.18;97978.81;5001304;28;19924;-75
2023/11/04 15:45:16;;;;;;;;;;;;;;;9.90;66.82;97937.28;5031955;28;19960;-71
2023/11/04 15:48:09;;;;;;;;;;;;;;;9.87;67.46;97934.16;5011491;28;20529;-71
2023/11/04 15:51:26;;;;;;;;;;;;;;;9.79;68.68;97929.66;5028316;28;19975;-72
2023/11/04 15:55:07;;;;;;;;;;;;;;;9.73;69.74;97932.06;5021066;28;19990;-72
2023/11/04 15:58:01;;;;;;;;;;;;;;;9.68;70.61;97927.28;5027362;28;19929;-69
2023/11/04 16:01:41;;;;;;;;;;;;;;;9.68;71.78;97918.53;5027878;28;19928;-68
2023/11/04 16:04:33;;;;;;;;;;;;;;;9.64;71.50;97910.97;5026715;28;19933;-69
2023/11/04 16:07:51;;;;;;;;;;;;;;;9.55;73.08;97906.63;5024049;28;20060;-64
2023/11/04 16:11:33;;;;;;;;;;;;;;;9.51;74.47;97900.03;5028545;28;19928;-68
2023/11/04 16:14:49;;;;;;;;;;;;;;;9.47;75.23;97901.28;5024659;28;19947;-71
2023/11/04 16:24:46;;;;;;;;;;;;;;;9.43;77.32;97889.44;5023297;28;19932;-73
2023/11/04 16:27:41;;;;;;;;;;;;;;;9.40;77.78;97892.34;5021595;28;19968;-75
2023/11/04 16:31:22;;;;;;;;;;;;;;;9.37;77.88;97880.38;5023634;28;20283;-71
2023/11/04 16:34:39;;;;;;;;;;;;;;;9.29;78.26;97869.78;5027298;28;19960;-70
2023/11/04 16:38:20;;;;;;;;;;;;;;;9.23;79.17;97872.16;5023810;28;20670;-74
2023/11/04 16:42:02;;;;;;;;;;;;;;;9.20;79.66;97872.50;5025467;28;20367;-78
2023/11/04 16:45:43;;;;;;;;;;;;;;;9.08;79.41;97854.31;5026388;28;19928;-70
2023/11/04 16:49:22;;;;;;;;;;;;;;;9.04;80.38;97845.09;5019943;28;19928;-73
2023/11/04 16:53:02;;;;;;;;;;;;;;;9.02;80.72;97836.56;5025884;28;20411;-71
2023/11/04 16:56:19;;;;;;;;;;;;;;;8.97;80.68;97823.06;5030348;28;19967;-69
2023/11/04 16:59:37;;;;;;;;;;;;;;;8.97;81.07;97812.56;5023405;28;19983;-68
2023/11/04 17:35:16;;;;;;;;;;;;;;;8.91;80.15;97792.16;5023375;28;19925;-74
2023/11/04 17:37:49;;;;;;;;;;;;;;;8.88;80.03;97801.16;5024948;28;19925;-75
2023/11/04 17:43:33;;;;;;;;;;;;;;;8.86;79.63;97804.88;5019004;28;19932;-70
2023/11/04 17:46:26;;;;;;;;;;;;;;;8.84;79.56;97791.94;5013182;28;19925;-73
2023/11/04 17:49:42;;;;;;;;;;;;;;;8.90;78.93;97773.94;5018066;28;19936;-69
2023/11/04 17:55:49;;;;;;;;;;;;;;;8.96;79.11;97740.06;5022931;28;19932;-75
2023/11/04 17:58:42;;;;;;;;;;;;;;;9.03;78.76;97732.41;5007839;28;20024;-72
2023/11/04 18:02:23;;;;;;;;;;;;;;;9.03;78.11;97743.72;5023993;28;19932;-69
2023/11/04 18:06:03;;;;;;;;;;;;;;;8.99;77.99;97760.75;5020720;28;20008;-76
2023/11/04 18:09:24;;;;;;;;;;;;;;;9.02;77.82;97755.22;5023185;28;20011;-73
2023/11/04 18:15:09;;;;;;;;;;;;;;;9.03;77.53;97722.72;5021563;28;20197;-70
2023/11/04 18:18:31;;;;;;;;;;;;;;;9.10;77.62;97713.28;5016226;28;20401;-73
2023/11/04 18:21:48;;;;;;;;;;;;;;;9.09;77.64;97711.63;5025918;28;20003;-76
2023/11/04 18:25:05;;;;;;;;;;;;;;;9.11;77.75;97714.94;5021127;28;19927;-75
2023/11/04 18:41:26;;;;;;;;;;;;;;;9.10;77.90;97666.06;5021892;28;19972;-72
2023/11/04 18:43:53;;;;;;;;;;;;;;;9.14;77.99;97669.19;5027458;28;19926;-71
2023/11/04 19:25:19;;;;;;;;;;;;;;;9.29;77.50;97628.28;5027545;28;19981;-70
2023/11/04 19:28:35;;;;;;;;;;;;;;;9.32;77.44;97633.22;5026278;28;19952;-73
2023/11/04 19:31:51;;;;;;;;;;;;;;;9.32;77.52;97635.84;5031509;28;19929;-67
2023/11/04 19:34:42;;;;;;;;;;;;;;;9.24;77.87;97625.28;5030592;28;20016;-74
2023/11/04 19:37:57;;;;;;;;;;;;;;;9.26;78.21;97633.00;5028955;28;19928;-73
2023/11/04 19:41:13;;;;;;;;;;;;;;;9.21;78.02;97622.97;5024171;28;19931;-75
2023/11/04 19:44:06;;;;;;;;;;;;;;;9.27;78.36;97629.41;5031223;28;20332;-69
2023/11/04 19:46:58;;;;;;;;;;;;;;;9.23;78.33;97617.56;5029492;28;20461;-73
2023/11/04 19:49:28;;;;;;;;;;;;;;;9.28;78.23;97615.31;5019878;28;20211;-73
2023/11/04 19:52:45;;;;;;;;;;;;;;;9.26;78.54;97609.38;5035158;28;19932;-74
2023/11/04 19:56:05;;;;;;;;;;;;;;;9.32;78.05;97627.97;5045178;28;19925;-73
2023/11/04 19:59:48;;;;;;;;;;;;;;;9.25;77.44;97624.31;5034535;28;19927;-70
2023/11/04 20:02:42;;;;;;;;;;;;;;;9.25;78.05;97618.25;5022041;28;19925;-74
2023/11/04 20:05:59;;;;;;;;;;;;;;;9.24;78.43;97608.72;5040930;28;20026;-70
2023/11/04 20:24:28;;;;;;;;;;;;;;;9.26;78.30;97581.31;5020848;28;20394;-70
2023/11/04 20:27:21;;;;;;;;;;;;;;;9.20;78.40;97581.16;5022980;28;20579;-71
2023/11/04 20:55:37;;;;;;;;;;;;;;;9.23;78.92;97523.06;5024539;28;19996;-72
2023/11/04 20:58:30;;;;;;;;;;;;;;;9.18;78.69;97526.16;5026188;28;19924;-72
2023/11/04 21:01:46;;;;;;;;;;;;;;;9.15;78.69;97509.94;5014801;28;19935;-71
2023/11/04 21:05:01;;;;;;;;;;;;;;;9.22;78.69;97514.38;5029495;28;20052;-73
2023/11/04 21:07:30;;;;;;;;;;;;;;;9.23;78.35;97517.81;5015146;28;20008;-70
2023/11/04 21:16:33;;;;;;;;;;;;;;;9.09;81.61;97535.78;5010174;28;19933;-67
2023/11/04 21:19:01;;;;;;;;;;;;;;;9.02;82.71;97541.84;5021873;28;19945;-71
2023/11/04 21:31:23;;;;;;;;;;;;;;;8.68;90.51;97519.00;5024491;28;19936;-72
2023/11/04 21:34:17;;;;;;;;;;;;;;;8.69;92.04;97506.72;5026494;28;19979;-73
2023/11/04 21:37:34;;;;;;;;;;;;;;;8.71;92.32;97496.91;5026615;28;19936;-68
2023/11/04 21:41:14;;;;;;;;;;;;;;;8.68;93.74;97494.59;5025778;28;20508;-71
2023/11/04 21:44:54;;;;;;;;;;;;;;;8.60;94.93;97484.88;5029542;28;20024;-72
2023/11/04 21:48:56;;;;;;;;;;;;;;;8.58;95.70;97482.41;5023759;28;20070;-74
2023/11/04 21:52:25;;;;;;;;;;;;;;;8.63;96.20;97461.78;5014882;28;19928;-74
2023/11/04 21:56:00;;;;;;;;;;;;;;;8.66;96.03;97465.09;5023315;28;20015;-76
2023/11/04 21:59:38;;;;;;;;;;;;;;;8.70;96.69;97466.44;5020802;28;20324;-71
2023/11/04 22:03:13;;;;;;;;;;;;;;;8.68;96.54;97463.94;5035802;28;19928;-74
2023/11/04 22:06:55;;;;;;;;;;;;;;;8.77;95.74;97449.88;5035344;28;19963;-72
2023/11/04 22:10:32;;;;;;;;;;;;;;;8.81;95.01;97450.41;5024580;28;20446;-73
2023/11/04 22:14:07;;;;;;;;;;;;;;;8.79;95.12;97434.03;5027867;28;19983;-66
2023/11/04 22:17:42;;;;;;;;;;;;;;;8.77;95.36;97428.09;5027752;28;20006;-72
2023/11/04 22:21:04;;;;;;;;;;;;;;;8.74;95.19;97423.19;5027836;28;19932;-75
2023/11/04 22:24:45;;;;;;;;;;;;;;;8.76;94.76;97415.97;5023826;28;20004;-72
2023/11/04 22:28:25;;;;;;;;;;;;;;;8.78;94.50;97408.75;5018826;28;20407;-75
2023/11/04 22:32:07;;;;;;;;;;;;;;;8.79;94.19;97406.00;5027726;28;19932;-75
2023/11/04 22:35:49;;;;;;;;;;;;;;;8.81;93.52;97408.44;5027123;28;20003;-72
2023/11/04 22:39:31;;;;;;;;;;;;;;;8.81;94.11;97401.38;5019253;28;19928;-74
2023/11/04 22:43:04;;;;;;;;;;;;;;;8.83;93.97;97402.06;5024847;28;19940;-71
2023/11/04 22:46:46;;;;;;;;;;;;;;;8.87;93.72;97392.91;5036858;28;19952;-75
2023/11/04 22:50:21;;;;;;;;;;;;;;;8.87;93.91;97398.16;5017404;28;19932;-69
2023/11/04 22:53:50;;;;;;;;;;;;;;;8.90;94.12;97402.25;5025245;28;19944;-71
2023/11/04 22:57:31;;;;;;;;;;;;;;;8.84;94.26;97395.84;5013356;28;19929;-70
2023/11/04 23:01:15;;;;;;;;;;;;;;;8.81;94.38;97400.56;5023112;28;20039;-67
2023/11/04 23:04:43;;;;;;;;;;;;;;;8.84;94.61;97379.28;5019154;28;19931;-69
2023/11/04 23:08:18;;;;;;;;;;;;;;;8.84;94.28;97385.34;5033324;28;19935;-73
2023/11/04 23:11:52;;;;;;;;;;;;;;;8.76;95.44;97366.13;5019097;28;19927;-77
2023/11/04 23:15:24;;;;;;;;;;;;;;;8.75;95.13;97367.13;5024998;28;19931;-74
2023/11/04 23:18:54;;;;;;;;;;;;;;;8.72;95.09;97377.91;5025053;28;20516;-78
2023/11/04 23:22:18;;;;;;;;;;;;;;;8.69;96.25;97378.22;5014874;28;19980;-72
2023/11/04 23:25:40;;;;;;;;;;;;;;;8.69;96.13;97376.44;5023433;28;19929;-71
2023/11/04 23:29:03;;;;;;;;;;;;;;;8.72;96.28;97370.88;5030459;28;19927;-71
2023/11/04 23:32:28;;;;;;;;;;;;;;;8.68;96.09;97356.44;5028272;28;19967;-72
2023/11/04 23:36:04;;;;;;;;;;;;;;;8.70;96.34;97362.34;5026815;28;20035;-67
2023/11/04 23:39:46;;;;;;;;;;;;;;;8.71;95.45;97357.94;5033252;28;19993;-74
2023/11/04 23:43:26;;;;;;;;;;;;;;;8.68;96.20;97360.84;5022920;28;20014;-72
2023/11/04 23:47:03;;;;;;;;;;;;;;;8.63;95.96;97353.47;5038946;28;20139;-74
2023/11/04 23:50:44;;;;;;;;;;;;;;;8.64;96.92;97349.84;5026197;28;19992;-75
2023/11/04 23:54:19;;;;;;;;;;;;;;;8.64;96.04;97336.75;5028105;28;19927;-77
2023/11/04 23:57:54;;;;;;;;;;;;;;;8.73;96.15;97348.09;5028142;28;20012;-74
